Airfield :
LOGIN :

Register | Disclaimer

   EN    FR    IT 

 










Legend :    VFR   Marginal VFR   IFR   Intensive IFR   Very Intensive IFR
Visi :
Ceiling :
>= 8 km
>= 3000ft
5 to 8 km
1000 to 3000 ft
1500m to 5 km
500 to 1000 ft
800 to 1500m
200 to 500 ft
< 800m
< 200 ft
Symbols :   Thunderstorms  Fog  Heavy snow  Heavy precipitations  Wind > 20 kt
SIGMETs :     Misc.  Thunderstorms  Icing  Turbulence  Mountain Waves  Volcanic Ashes






- Airport Elevation : 1115 ft
- IATA code : GRZ


LOWG - Graz

CURRENT METAR :
  • 271720Z 16004KT 0550 R17/0650N R35/0650N FZFG VV002 M01/M02 Q1016 R17/19//95 TEMPO 0300

EXPIRED METARs :
  • 271650Z 17006KT 0550 R17/0600N R35/0800N FZFG VV002 M01/M01 Q1016 R17/19//95 TEMPO 0300
  • 271620Z 17006KT 0600 R17/0700N R35/0900N FZFG VV002 M01/M01 Q1016 R17/19//95 TEMPO 0300
  • 271550Z 18006KT 0800 R17/0600N R35/P1500D FZBCFG SCT002 SCT300 M01/M01 Q1016 R17/19//95 TEMPO 0300 VV002
  • 271520Z 20004KT 9999 2000S FZBCFG FEW040 M00/M01 Q1016 R17/19//95 BECMG 0300 FZFG BKN003
  • 271450Z 18004KT 9999 FEW040 02/M01 Q1016 R17/19//95 NOSIG

TAF TAF LOWG
Valid from the 27 at 18:00 until the 28 at 18:00 UTC


271715Z 2718/2818 17004KT 0700 FZFG BKN003 TX04/2814Z TNM02/2720Z
PROB30
TEMPO 2802/2804 0800 -FZRA FZBCFG BKN030
BECMG 2811/2813 9999 FEW020 SCT040
TEMPO 2814/2817 35015G25KT SHRA BKN035
TEMPO 2817/2818 18010KT 2000 BR BKN005



MET'MAP, your aeronautical weather chart ! - Copyright ORBIFLY December 2007 - Disclaimer

ORBIFLY MET'MAP TEAM :

Programming & Development : Alexandra Zaïnal
Concept & original design : Baudouin d'Aumeries
Assistance for programming : Marc-Olivier Méhu
Technical & hardware support : Manuel Goepfert

Contact : metmap@orbifly.com




SOURCES & CREDITS :

   NOAA